sensor_id;sensor_type;location;lat;lon;timestamp;P1;durP1;ratioP1;P2;durP2;ratioP2
32108;SDS011;18624;50.042;8.436;2023-03-01T00:01:00;29.15;;;15.18;;
32108;SDS011;18624;50.042;8.436;2023-03-01T00:03:31;27.98;;;14.00;;
32108;SDS011;18624;50.042;8.436;2023-03-01T00:05:58;26.10;;;14.93;;
32108;SDS011;18624;50.042;8.436;2023-03-01T00:08:25;26.55;;;14.98;;
32108;SDS011;18624;50.042;8.436;2023-03-01T00:13:35;28.15;;;16.00;;
32108;SDS011;18624;50.042;8.436;2023-03-01T00:16:05;25.70;;;13.30;;
32108;SDS011;18624;50.042;8.436;2023-03-01T00:18:34;27.77;;;14.52;;
32108;SDS011;18624;50.042;8.436;2023-03-01T00:21:01;22.90;;;12.98;;
32108;SDS011;18624;50.042;8.436;2023-03-01T00:23:27;23.85;;;13.70;;
32108;SDS011;18624;50.042;8.436;2023-03-01T00:25:54;25.55;;;14.77;;
32108;SDS011;18624;50.042;8.436;2023-03-01T00:28:20;25.55;;;14.55;;
32108;SDS011;18624;50.042;8.436;2023-03-01T00:30:47;23.65;;;14.80;;
32108;SDS011;18624;50.042;8.436;2023-03-01T00:33:14;23.98;;;14.52;;
32108;SDS011;18624;50.042;8.436;2023-03-01T00:35:41;23.10;;;12.82;;
32108;SDS011;18624;50.042;8.436;2023-03-01T00:38:08;27.65;;;15.48;;
32108;SDS011;18624;50.042;8.436;2023-03-01T00:40:35;26.92;;;14.27;;
32108;SDS011;18624;50.042;8.436;2023-03-01T00:43:02;27.10;;;15.15;;
32108;SDS011;18624;50.042;8.436;2023-03-01T00:45:29;22.45;;;14.38;;
32108;SDS011;18624;50.042;8.436;2023-03-01T00:47:57;25.63;;;14.57;;
32108;SDS011;18624;50.042;8.436;2023-03-01T00:50:24;23.17;;;13.80;;
32108;SDS011;18624;50.042;8.436;2023-03-01T00:52:54;28.98;;;15.20;;
32108;SDS011;18624;50.042;8.436;2023-03-01T00:55:21;25.13;;;14.70;;
32108;SDS011;18624;50.042;8.436;2023-03-01T00:57:47;25.08;;;14.48;;
32108;SDS011;18624;50.042;8.436;2023-03-01T01:00:14;25.60;;;13.70;;
32108;SDS011;18624;50.042;8.436;2023-03-01T01:02:41;25.00;;;13.90;;
32108;SDS011;18624;50.042;8.436;2023-03-01T01:05:07;26.33;;;14.40;;
32108;SDS011;18624;50.042;8.436;2023-03-01T01:07:34;27.55;;;15.48;;
32108;SDS011;18624;50.042;8.436;2023-03-01T01:10:00;24.77;;;14.25;;
32108;SDS011;18624;50.042;8.436;2023-03-01T01:12:27;27.88;;;16.52;;
32108;SDS011;18624;50.042;8.436;2023-03-01T01:14:53;27.75;;;14.30;;
32108;SDS011;18624;50.042;8.436;2023-03-01T01:17:20;25.33;;;14.05;;
32108;SDS011;18624;50.042;8.436;2023-03-01T01:19:47;27.50;;;14.30;;
32108;SDS011;18624;50.042;8.436;2023-03-01T01:22:13;27.88;;;15.35;;
32108;SDS011;18624;50.042;8.436;2023-03-01T01:24:40;27.10;;;14.73;;
32108;SDS011;18624;50.042;8.436;2023-03-01T01:27:06;25.17;;;14.57;;
32108;SDS011;18624;50.042;8.436;2023-03-01T01:29:33;24.13;;;14.60;;
32108;SDS011;18624;50.042;8.436;2023-03-01T01:31:59;24.25;;;13.82;;
32108;SDS011;18624;50.042;8.436;2023-03-01T01:34:26;26.80;;;14.40;;
32108;SDS011;18624;50.042;8.436;2023-03-01T01:36:53;25.42;;;14.38;;
32108;SDS011;18624;50.042;8.436;2023-03-01T01:39:20;27.13;;;14.05;;
32108;SDS011;18624;50.042;8.436;2023-03-01T01:41:47;26.42;;;15.23;;
32108;SDS011;18624;50.042;8.436;2023-03-01T01:44:24;28.08;;;15.55;;
32108;SDS011;18624;50.042;8.436;2023-03-01T01:49:24;24.73;;;14.52;;
32108;SDS011;18624;50.042;8.436;2023-03-01T01:57:24;26.13;;;14.82;;
32108;SDS011;18624;50.042;8.436;2023-03-01T01:59:55;26.25;;;14.40;;
32108;SDS011;18624;50.042;8.436;2023-03-01T02:02:26;23.10;;;12.10;;
32108;SDS011;18624;50.042;8.436;2023-03-01T02:04:55;26.10;;;15.25;;
32108;SDS011;18624;50.042;8.436;2023-03-01T02:07:29;26.08;;;14.90;;
32108;SDS011;18624;50.042;8.436;2023-03-01T02:10:02;29.38;;;15.75;;
32108;SDS011;18624;50.042;8.436;2023-03-01T02:12:29;27.15;;;15.60;;
32108;SDS011;18624;50.042;8.436;2023-03-01T02:14:56;26.20;;;15.13;;
32108;SDS011;18624;50.042;8.436;2023-03-01T02:17:23;26.25;;;14.55;;
32108;SDS011;18624;50.042;8.436;2023-03-01T02:22:35;29.83;;;16.30;;
32108;SDS011;18624;50.042;8.436;2023-03-01T02:27:59;25.35;;;15.05;;
32108;SDS011;18624;50.042;8.436;2023-03-01T02:30:34;26.15;;;15.10;;
32108;SDS011;18624;50.042;8.436;2023-03-01T02:33:01;26.75;;;14.70;;
32108;SDS011;18624;50.042;8.436;2023-03-01T02:35:37;28.05;;;15.48;;
32108;SDS011;18624;50.042;8.436;2023-03-01T02:38:06;28.55;;;16.42;;
32108;SDS011;18624;50.042;8.436;2023-03-01T02:40:34;29.85;;;16.23;;
32108;SDS011;18624;50.042;8.436;2023-03-01T02:43:04;27.02;;;15.00;;
32108;SDS011;18624;50.042;8.436;2023-03-01T02:45:36;31.70;;;16.60;;
32108;SDS011;18624;50.042;8.436;2023-03-01T02:48:02;28.88;;;15.90;;
32108;SDS011;18624;50.042;8.436;2023-03-01T02:53:09;32.20;;;16.58;;
32108;SDS011;18624;50.042;8.436;2023-03-01T02:55:41;29.88;;;16.27;;
32108;SDS011;18624;50.042;8.436;2023-03-01T02:58:08;28.33;;;15.63;;
32108;SDS011;18624;50.042;8.436;2023-03-01T03:00:36;29.52;;;16.70;;
32108;SDS011;18624;50.042;8.436;2023-03-01T03:03:06;26.35;;;15.93;;
32108;SDS011;18624;50.042;8.436;2023-03-01T03:05:33;30.42;;;16.73;;
32108;SDS011;18624;50.042;8.436;2023-03-01T03:08:00;26.88;;;15.60;;
32108;SDS011;18624;50.042;8.436;2023-03-01T03:10:33;27.50;;;14.98;;
32108;SDS011;18624;50.042;8.436;2023-03-01T03:13:06;29.02;;;15.68;;
32108;SDS011;18624;50.042;8.436;2023-03-01T03:15:36;29.25;;;16.27;;
32108;SDS011;18624;50.042;8.436;2023-03-01T03:18:05;29.42;;;16.23;;
32108;SDS011;18624;50.042;8.436;2023-03-01T03:20:33;28.95;;;15.85;;
32108;SDS011;18624;50.042;8.436;2023-03-01T03:23:00;27.67;;;16.23;;
32108;SDS011;18624;50.042;8.436;2023-03-01T03:25:27;26.35;;;15.25;;
32108;SDS011;18624;50.042;8.436;2023-03-01T03:27:55;28.38;;;15.23;;
32108;SDS011;18624;50.042;8.436;2023-03-01T03:30:26;28.10;;;16.50;;
32108;SDS011;18624;50.042;8.436;2023-03-01T03:32:55;32.75;;;16.15;;
32108;SDS011;18624;50.042;8.436;2023-03-01T03:35:24;28.73;;;16.33;;
32108;SDS011;18624;50.042;8.436;2023-03-01T03:37:54;28.15;;;16.05;;
32108;SDS011;18624;50.042;8.436;2023-03-01T03:40:36;25.35;;;14.93;;
32108;SDS011;18624;50.042;8.436;2023-03-01T03:43:05;31.75;;;16.33;;
32108;SDS011;18624;50.042;8.436;2023-03-01T03:45:34;29.42;;;16.30;;
32108;SDS011;18624;50.042;8.436;2023-03-01T03:48:03;25.98;;;16.27;;
32108;SDS011;18624;50.042;8.436;2023-03-01T03:50:31;25.30;;;14.80;;
32108;SDS011;18624;50.042;8.436;2023-03-01T03:53:02;30.98;;;17.15;;
32108;SDS011;18624;50.042;8.436;2023-03-01T03:55:30;30.83;;;17.52;;
32108;SDS011;18624;50.042;8.436;2023-03-01T03:58:00;27.23;;;15.15;;
32108;SDS011;18624;50.042;8.436;2023-03-01T04:00:33;29.17;;;16.23;;
32108;SDS011;18624;50.042;8.436;2023-03-01T04:03:01;29.50;;;16.40;;
32108;SDS011;18624;50.042;8.436;2023-03-01T04:05:29;28.05;;;15.35;;
32108;SDS011;18624;50.042;8.436;2023-03-01T04:07:56;29.00;;;16.98;;
32108;SDS011;18624;50.042;8.436;2023-03-01T04:10:30;28.67;;;15.90;;
32108;SDS011;18624;50.042;8.436;2023-03-01T04:12:58;26.92;;;15.35;;
32108;SDS011;18624;50.042;8.436;2023-03-01T04:15:25;29.63;;;16.27;;
32108;SDS011;18624;50.042;8.436;2023-03-01T04:17:53;30.17;;;16.88;;
32108;SDS011;18624;50.042;8.436;2023-03-01T04:20:23;28.27;;;16.42;;
32108;SDS011;18624;50.042;8.436;2023-03-01T04:22:52;29.30;;;16.92;;
32108;SDS011;18624;50.042;8.436;2023-03-01T04:25:51;31.05;;;18.17;;
32108;SDS011;18624;50.042;8.436;2023-03-01T04:28:31;28.33;;;16.67;;
32108;SDS011;18624;50.042;8.436;2023-03-01T04:31:06;27.17;;;15.70;;
32108;SDS011;18624;50.042;8.436;2023-03-01T04:33:49;28.42;;;16.65;;
32108;SDS011;18624;50.042;8.436;2023-03-01T04:36:25;30.45;;;17.55;;
32108;SDS011;18624;50.042;8.436;2023-03-01T04:41:20;32.10;;;17.40;;
32108;SDS011;18624;50.042;8.436;2023-03-01T04:43:48;29.15;;;17.60;;
32108;SDS011;18624;50.042;8.436;2023-03-01T04:46:16;32.85;;;17.95;;
32108;SDS011;18624;50.042;8.436;2023-03-01T04:48:44;32.60;;;17.85;;
32108;SDS011;18624;50.042;8.436;2023-03-01T04:51:11;35.25;;;17.80;;
32108;SDS011;18624;50.042;8.436;2023-03-01T04:53:41;33.65;;;18.00;;
32108;SDS011;18624;50.042;8.436;2023-03-01T04:56:09;32.65;;;18.88;;
32108;SDS011;18624;50.042;8.436;2023-03-01T04:58:36;32.42;;;16.80;;
32108;SDS011;18624;50.042;8.436;2023-03-01T05:01:07;30.88;;;16.95;;
32108;SDS011;18624;50.042;8.436;2023-03-01T05:03:42;34.88;;;18.00;;
32108;SDS011;18624;50.042;8.436;2023-03-01T05:06:11;33.40;;;18.40;;
32108;SDS011;18624;50.042;8.436;2023-03-01T05:08:39;29.80;;;17.02;;
32108;SDS011;18624;50.042;8.436;2023-03-01T05:11:06;30.48;;;17.23;;
32108;SDS011;18624;50.042;8.436;2023-03-01T05:13:38;32.50;;;17.73;;
32108;SDS011;18624;50.042;8.436;2023-03-01T05:16:06;32.05;;;18.27;;
32108;SDS011;18624;50.042;8.436;2023-03-01T05:18:37;26.13;;;14.33;;
32108;SDS011;18624;50.042;8.436;2023-03-01T05:21:09;32.80;;;18.70;;
32108;SDS011;18624;50.042;8.436;2023-03-01T05:23:37;31.00;;;18.33;;
32108;SDS011;18624;50.042;8.436;2023-03-01T05:26:05;32.45;;;17.70;;
32108;SDS011;18624;50.042;8.436;2023-03-01T05:28:36;26.02;;;14.63;;
32108;SDS011;18624;50.042;8.436;2023-03-01T05:31:03;31.88;;;17.23;;
32108;SDS011;18624;50.042;8.436;2023-03-01T05:33:36;32.60;;;18.35;;
32108;SDS011;18624;50.042;8.436;2023-03-01T05:36:04;32.90;;;19.05;;
32108;SDS011;18624;50.042;8.436;2023-03-01T05:38:31;33.55;;;17.92;;
32108;SDS011;18624;50.042;8.436;2023-03-01T05:40:57;31.00;;;17.48;;
32108;SDS011;18624;50.042;8.436;2023-03-01T05:43:24;32.70;;;17.33;;
32108;SDS011;18624;50.042;8.436;2023-03-01T05:45:50;35.40;;;18.60;;
32108;SDS011;18624;50.042;8.436;2023-03-01T05:48:17;34.30;;;17.85;;
32108;SDS011;18624;50.042;8.436;2023-03-01T05:50:45;32.28;;;16.70;;
32108;SDS011;18624;50.042;8.436;2023-03-01T05:53:14;30.20;;;17.63;;
32108;SDS011;18624;50.042;8.436;2023-03-01T05:55:43;34.35;;;18.10;;
32108;SDS011;18624;50.042;8.436;2023-03-01T05:58:13;34.70;;;18.10;;
32108;SDS011;18624;50.042;8.436;2023-03-01T06:00:43;32.47;;;17.92;;
32108;SDS011;18624;50.042;8.436;2023-03-01T06:03:11;32.70;;;17.13;;
32108;SDS011;18624;50.042;8.436;2023-03-01T06:05:38;33.75;;;17.77;;
32108;SDS011;18624;50.042;8.436;2023-03-01T06:08:06;36.55;;;18.17;;
32108;SDS011;18624;50.042;8.436;2023-03-01T06:10:35;31.35;;;17.58;;
32108;SDS011;18624;50.042;8.436;2023-03-01T06:13:01;36.08;;;20.10;;
32108;SDS011;18624;50.042;8.436;2023-03-01T06:15:28;35.58;;;19.38;;
32108;SDS011;18624;50.042;8.436;2023-03-01T06:17:55;34.55;;;18.33;;
32108;SDS011;18624;50.042;8.436;2023-03-01T06:20:26;32.15;;;17.33;;
32108;SDS011;18624;50.042;8.436;2023-03-01T06:22:56;40.78;;;19.02;;
32108;SDS011;18624;50.042;8.436;2023-03-01T06:25:23;32.42;;;18.17;;
32108;SDS011;18624;50.042;8.436;2023-03-01T06:27:51;30.67;;;17.70;;
32108;SDS011;18624;50.042;8.436;2023-03-01T06:30:21;30.05;;;17.25;;
32108;SDS011;18624;50.042;8.436;2023-03-01T06:32:49;37.20;;;18.27;;
32108;SDS011;18624;50.042;8.436;2023-03-01T06:35:16;35.45;;;16.58;;
32108;SDS011;18624;50.042;8.436;2023-03-01T06:37:45;35.30;;;17.90;;
32108;SDS011;18624;50.042;8.436;2023-03-01T06:40:13;30.05;;;17.48;;
32108;SDS011;18624;50.042;8.436;2023-03-01T06:42:40;34.90;;;17.55;;
32108;SDS011;18624;50.042;8.436;2023-03-01T06:45:09;36.35;;;17.42;;
32108;SDS011;18624;50.042;8.436;2023-03-01T06:47:36;34.92;;;17.92;;
32108;SDS011;18624;50.042;8.436;2023-03-01T06:50:03;30.58;;;18.15;;
32108;SDS011;18624;50.042;8.436;2023-03-01T06:52:30;30.90;;;16.75;;
32108;SDS011;18624;50.042;8.436;2023-03-01T06:54:57;35.35;;;17.92;;
32108;SDS011;18624;50.042;8.436;2023-03-01T06:57:23;31.27;;;16.33;;
32108;SDS011;18624;50.042;8.436;2023-03-01T06:59:50;41.50;;;19.52;;
32108;SDS011;18624;50.042;8.436;2023-03-01T07:02:16;33.80;;;16.80;;
32108;SDS011;18624;50.042;8.436;2023-03-01T07:04:43;40.63;;;18.92;;
32108;SDS011;18624;50.042;8.436;2023-03-01T07:07:09;28.92;;;16.20;;
32108;SDS011;18624;50.042;8.436;2023-03-01T07:09:36;32.92;;;16.75;;
32108;SDS011;18624;50.042;8.436;2023-03-01T07:12:02;31.60;;;16.30;;
32108;SDS011;18624;50.042;8.436;2023-03-01T07:14:29;34.10;;;17.77;;
32108;SDS011;18624;50.042;8.436;2023-03-01T07:16:55;30.23;;;17.25;;
32108;SDS011;18624;50.042;8.436;2023-03-01T07:19:22;32.45;;;17.20;;
32108;SDS011;18624;50.042;8.436;2023-03-01T07:21:49;33.50;;;17.45;;
32108;SDS011;18624;50.042;8.436;2023-03-01T07:24:15;33.17;;;17.40;;
32108;SDS011;18624;50.042;8.436;2023-03-01T07:26:42;27.45;;;16.75;;
32108;SDS011;18624;50.042;8.436;2023-03-01T07:29:09;32.70;;;17.17;;
32108;SDS011;18624;50.042;8.436;2023-03-01T07:31:36;29.95;;;17.05;;
32108;SDS011;18624;50.042;8.436;2023-03-01T07:34:02;31.30;;;16.48;;
32108;SDS011;18624;50.042;8.436;2023-03-01T07:36:29;36.03;;;17.52;;
32108;SDS011;18624;50.042;8.436;2023-03-01T07:38:56;32.33;;;17.75;;
32108;SDS011;18624;50.042;8.436;2023-03-01T07:41:23;33.28;;;17.25;;
32108;SDS011;18624;50.042;8.436;2023-03-01T07:43:50;38.95;;;16.95;;
32108;SDS011;18624;50.042;8.436;2023-03-01T07:46:17;36.13;;;19.48;;
32108;SDS011;18624;50.042;8.436;2023-03-01T07:48:45;34.50;;;19.15;;
32108;SDS011;18624;50.042;8.436;2023-03-01T07:51:11;32.58;;;17.20;;
32108;SDS011;18624;50.042;8.436;2023-03-01T07:53:38;33.28;;;17.33;;
32108;SDS011;18624;50.042;8.436;2023-03-01T07:56:06;30.00;;;17.50;;
32108;SDS011;18624;50.042;8.436;2023-03-01T07:58:35;33.33;;;18.25;;
32108;SDS011;18624;50.042;8.436;2023-03-01T08:01:03;36.92;;;18.20;;
32108;SDS011;18624;50.042;8.436;2023-03-01T08:03:32;31.27;;;17.85;;
32108;SDS011;18624;50.042;8.436;2023-03-01T08:05:59;36.03;;;17.83;;
32108;SDS011;18624;50.042;8.436;2023-03-01T08:08:26;32.90;;;17.30;;
32108;SDS011;18624;50.042;8.436;2023-03-01T08:10:56;35.30;;;18.05;;
32108;SDS011;18624;50.042;8.436;2023-03-01T08:13:23;35.58;;;16.95;;
32108;SDS011;18624;50.042;8.436;2023-03-01T08:15:49;35.38;;;17.40;;
32108;SDS011;18624;50.042;8.436;2023-03-01T08:18:16;43.40;;;19.33;;
32108;SDS011;18624;50.042;8.436;2023-03-01T08:20:43;32.85;;;16.88;;
32108;SDS011;18624;50.042;8.436;2023-03-01T08:23:10;34.63;;;18.08;;
32108;SDS011;18624;50.042;8.436;2023-03-01T08:25:37;32.05;;;17.38;;
32108;SDS011;18624;50.042;8.436;2023-03-01T08:28:04;30.95;;;16.17;;
32108;SDS011;18624;50.042;8.436;2023-03-01T08:30:31;32.47;;;17.48;;
32108;SDS011;18624;50.042;8.436;2023-03-01T08:32:58;34.05;;;17.58;;
32108;SDS011;18624;50.042;8.436;2023-03-01T08:35:24;30.70;;;17.48;;
32108;SDS011;18624;50.042;8.436;2023-03-01T08:37:51;31.17;;;17.17;;
32108;SDS011;18624;50.042;8.436;2023-03-01T08:40:17;33.03;;;19.35;;
32108;SDS011;18624;50.042;8.436;2023-03-01T08:42:43;33.75;;;17.25;;
32108;SDS011;18624;50.042;8.436;2023-03-01T08:45:10;35.05;;;19.27;;
32108;SDS011;18624;50.042;8.436;2023-03-01T08:47:38;35.47;;;17.60;;
32108;SDS011;18624;50.042;8.436;2023-03-01T08:50:04;33.13;;;18.45;;
32108;SDS011;18624;50.042;8.436;2023-03-01T08:52:32;29.27;;;16.10;;
32108;SDS011;18624;50.042;8.436;2023-03-01T08:54:58;31.27;;;17.27;;
32108;SDS011;18624;50.042;8.436;2023-03-01T08:57:27;34.08;;;18.17;;
32108;SDS011;18624;50.042;8.436;2023-03-01T08:59:53;30.27;;;17.13;;
32108;SDS011;18624;50.042;8.436;2023-03-01T09:02:22;31.38;;;17.35;;
32108;SDS011;18624;50.042;8.436;2023-03-01T09:04:48;31.65;;;17.33;;
32108;SDS011;18624;50.042;8.436;2023-03-01T09:07:15;31.90;;;17.48;;
32108;SDS011;18624;50.042;8.436;2023-03-01T09:09:41;35.30;;;17.52;;
32108;SDS011;18624;50.042;8.436;2023-03-01T09:12:08;26.92;;;15.70;;
32108;SDS011;18624;50.042;8.436;2023-03-01T09:14:34;34.53;;;18.15;;
32108;SDS011;18624;50.042;8.436;2023-03-01T09:17:03;36.10;;;17.58;;
32108;SDS011;18624;50.042;8.436;2023-03-01T09:19:29;31.38;;;17.00;;
32108;SDS011;18624;50.042;8.436;2023-03-01T09:21:56;33.85;;;16.83;;
32108;SDS011;18624;50.042;8.436;2023-03-01T09:24:24;31.92;;;17.63;;
32108;SDS011;18624;50.042;8.436;2023-03-01T09:26:52;33.35;;;17.45;;
32108;SDS011;18624;50.042;8.436;2023-03-01T09:29:21;33.63;;;17.45;;
32108;SDS011;18624;50.042;8.436;2023-03-01T09:31:48;33.92;;;17.98;;
32108;SDS011;18624;50.042;8.436;2023-03-01T09:34:15;32.38;;;19.38;;
32108;SDS011;18624;50.042;8.436;2023-03-01T09:36:45;35.63;;;18.40;;
32108;SDS011;18624;50.042;8.436;2023-03-01T09:39:11;34.90;;;17.08;;
32108;SDS011;18624;50.042;8.436;2023-03-01T09:41:49;33.25;;;17.73;;
32108;SDS011;18624;50.042;8.436;2023-03-01T09:49:52;33.80;;;17.45;;
32108;SDS011;18624;50.042;8.436;2023-03-01T09:52:39;32.85;;;18.73;;
32108;SDS011;18624;50.042;8.436;2023-03-01T09:55:12;34.20;;;19.05;;
32108;SDS011;18624;50.042;8.436;2023-03-01T09:57:43;36.60;;;18.60;;
32108;SDS011;18624;50.042;8.436;2023-03-01T10:00:33;32.72;;;17.33;;
32108;SDS011;18624;50.042;8.436;2023-03-01T10:08:42;32.97;;;19.00;;
32108;SDS011;18624;50.042;8.436;2023-03-01T10:11:20;35.67;;;18.90;;
32108;SDS011;18624;50.042;8.436;2023-03-01T10:16:26;31.55;;;18.13;;
32108;SDS011;18624;50.042;8.436;2023-03-01T10:19:00;33.45;;;18.40;;
32108;SDS011;18624;50.042;8.436;2023-03-01T10:21:29;38.95;;;20.27;;
32108;SDS011;18624;50.042;8.436;2023-03-01T10:24:01;30.48;;;17.55;;
32108;SDS011;18624;50.042;8.436;2023-03-01T10:26:40;34.00;;;19.85;;
32108;SDS011;18624;50.042;8.436;2023-03-01T10:29:11;36.72;;;19.30;;
32108;SDS011;18624;50.042;8.436;2023-03-01T10:34:26;33.28;;;19.88;;
32108;SDS011;18624;50.042;8.436;2023-03-01T10:37:17;33.80;;;19.10;;
32108;SDS011;18624;50.042;8.436;2023-03-01T10:40:06;34.33;;;19.13;;
32108;SDS011;18624;50.042;8.436;2023-03-01T10:42:47;33.85;;;18.70;;
32108;SDS011;18624;50.042;8.436;2023-03-01T10:48:02;34.50;;;18.55;;
32108;SDS011;18624;50.042;8.436;2023-03-01T10:50:45;30.73;;;17.90;;
32108;SDS011;18624;50.042;8.436;2023-03-01T10:56:17;33.30;;;18.60;;
32108;SDS011;18624;50.042;8.436;2023-03-01T11:01:28;38.53;;;20.60;;
32108;SDS011;18624;50.042;8.436;2023-03-01T11:06:31;30.73;;;17.35;;
32108;SDS011;18624;50.042;8.436;2023-03-01T11:09:21;33.97;;;17.60;;
32108;SDS011;18624;50.042;8.436;2023-03-01T11:11:55;33.08;;;18.05;;
32108;SDS011;18624;50.042;8.436;2023-03-01T11:14:24;26.40;;;16.63;;
32108;SDS011;18624;50.042;8.436;2023-03-01T11:17:00;33.08;;;17.88;;
32108;SDS011;18624;50.042;8.436;2023-03-01T11:19:29;31.45;;;18.73;;
32108;SDS011;18624;50.042;8.436;2023-03-01T11:32:39;29.45;;;17.35;;
32108;SDS011;18624;50.042;8.436;2023-03-01T11:35:28;31.07;;;17.93;;
32108;SDS011;18624;50.042;8.436;2023-03-01T11:40:26;27.73;;;16.83;;
32108;SDS011;18624;50.042;8.436;2023-03-01T11:45:39;29.05;;;17.58;;
32108;SDS011;18624;50.042;8.436;2023-03-01T11:51:20;36.50;;;17.65;;
32108;SDS011;18624;50.042;8.436;2023-03-01T11:59:20;30.00;;;17.08;;
32108;SDS011;18624;50.042;8.436;2023-03-01T12:11:02;28.58;;;16.55;;
32108;SDS011;18624;50.042;8.436;2023-03-01T12:35:33;30.40;;;16.92;;
32108;SDS011;18624;50.042;8.436;2023-03-01T12:44:07;30.23;;;15.48;;
32108;SDS011;18624;50.042;8.436;2023-03-01T12:46:47;22.77;;;13.40;;
32108;SDS011;18624;50.042;8.436;2023-03-01T12:49:42;24.40;;;14.02;;
32108;SDS011;18624;50.042;8.436;2023-03-01T12:52:16;29.08;;;15.27;;
32108;SDS011;18624;50.042;8.436;2023-03-01T12:54:51;24.85;;;13.55;;
32108;SDS011;18624;50.042;8.436;2023-03-01T13:02:58;28.02;;;15.02;;
32108;SDS011;18624;50.042;8.436;2023-03-01T13:05:39;25.23;;;13.68;;
32108;SDS011;18624;50.042;8.436;2023-03-01T13:08:27;31.58;;;15.57;;
32108;SDS011;18624;50.042;8.436;2023-03-01T13:11:03;23.80;;;11.70;;
32108;SDS011;18624;50.042;8.436;2023-03-01T13:13:32;26.50;;;14.25;;
32108;SDS011;18624;50.042;8.436;2023-03-01T13:16:19;27.13;;;13.80;;
32108;SDS011;18624;50.042;8.436;2023-03-01T13:19:13;25.55;;;14.15;;
32108;SDS011;18624;50.042;8.436;2023-03-01T13:21:43;24.63;;;14.07;;
32108;SDS011;18624;50.042;8.436;2023-03-01T13:37:43;25.02;;;13.52;;
32108;SDS011;18624;50.042;8.436;2023-03-01T13:40:56;31.08;;;15.40;;
32108;SDS011;18624;50.042;8.436;2023-03-01T13:42:56;24.85;;;13.40;;
32108;SDS011;18624;50.042;8.436;2023-03-01T13:45:43;25.05;;;14.18;;
32108;SDS011;18624;50.042;8.436;2023-03-01T13:48:16;24.10;;;13.85;;
32108;SDS011;18624;50.042;8.436;2023-03-01T13:50:51;23.23;;;13.25;;
32108;SDS011;18624;50.042;8.436;2023-03-01T13:53:22;24.87;;;13.20;;
32108;SDS011;18624;50.042;8.436;2023-03-01T13:55:55;23.27;;;12.77;;
32108;SDS011;18624;50.042;8.436;2023-03-01T13:58:27;26.42;;;12.98;;
32108;SDS011;18624;50.042;8.436;2023-03-01T14:00:58;23.17;;;12.75;;
32108;SDS011;18624;50.042;8.436;2023-03-01T14:03:31;23.67;;;14.10;;
32108;SDS011;18624;50.042;8.436;2023-03-01T14:06:10;24.45;;;14.10;;
32108;SDS011;18624;50.042;8.436;2023-03-01T14:08:45;26.13;;;13.48;;
32108;SDS011;18624;50.042;8.436;2023-03-01T14:11:21;26.13;;;14.00;;
32108;SDS011;18624;50.042;8.436;2023-03-01T14:19:32;24.65;;;14.20;;
32108;SDS011;18624;50.042;8.436;2023-03-01T14:22:02;21.23;;;13.30;;
32108;SDS011;18624;50.042;8.436;2023-03-01T14:24:52;24.27;;;13.82;;
32108;SDS011;18624;50.042;8.436;2023-03-01T14:27:21;25.95;;;13.75;;
32108;SDS011;18624;50.042;8.436;2023-03-01T14:29:59;24.48;;;13.15;;
32108;SDS011;18624;50.042;8.436;2023-03-01T14:32:29;22.42;;;11.85;;
32108;SDS011;18624;50.042;8.436;2023-03-01T14:34:57;23.50;;;14.07;;
32108;SDS011;18624;50.042;8.436;2023-03-01T14:39:57;22.55;;;13.38;;
32108;SDS011;18624;50.042;8.436;2023-03-01T14:42:26;23.95;;;13.52;;
32108;SDS011;18624;50.042;8.436;2023-03-01T14:44:57;23.35;;;13.43;;
32108;SDS011;18624;50.042;8.436;2023-03-01T14:47:32;24.10;;;14.30;;
32108;SDS011;18624;50.042;8.436;2023-03-01T14:50:05;21.40;;;12.65;;
32108;SDS011;18624;50.042;8.436;2023-03-01T14:52:54;25.15;;;13.73;;
32108;SDS011;18624;50.042;8.436;2023-03-01T14:58:11;24.15;;;14.30;;
32108;SDS011;18624;50.042;8.436;2023-03-01T15:00:40;23.42;;;13.68;;
32108;SDS011;18624;50.042;8.436;2023-03-01T15:03:18;22.73;;;12.82;;
32108;SDS011;18624;50.042;8.436;2023-03-01T15:05:50;24.48;;;12.85;;
32108;SDS011;18624;50.042;8.436;2023-03-01T15:08:19;28.42;;;14.40;;
32108;SDS011;18624;50.042;8.436;2023-03-01T15:10:58;21.80;;;12.77;;
32108;SDS011;18624;50.042;8.436;2023-03-01T15:13:26;23.90;;;12.68;;
32108;SDS011;18624;50.042;8.436;2023-03-01T15:16:03;25.15;;;14.00;;
32108;SDS011;18624;50.042;8.436;2023-03-01T15:18:33;28.45;;;14.45;;
32108;SDS011;18624;50.042;8.436;2023-03-01T15:21:15;24.08;;;13.63;;
32108;SDS011;18624;50.042;8.436;2023-03-01T15:23:47;25.88;;;13.82;;
32108;SDS011;18624;50.042;8.436;2023-03-01T15:26:28;22.45;;;12.73;;
32108;SDS011;18624;50.042;8.436;2023-03-01T15:29:01;23.08;;;12.48;;
32108;SDS011;18624;50.042;8.436;2023-03-01T15:31:29;21.58;;;12.25;;
32108;SDS011;18624;50.042;8.436;2023-03-01T15:34:08;24.25;;;12.93;;
32108;SDS011;18624;50.042;8.436;2023-03-01T15:36:42;22.95;;;12.75;;
32108;SDS011;18624;50.042;8.436;2023-03-01T15:45:08;21.77;;;13.77;;
32108;SDS011;18624;50.042;8.436;2023-03-01T15:47:34;28.33;;;14.10;;
32108;SDS011;18624;50.042;8.436;2023-03-01T15:50:04;27.20;;;13.15;;
32108;SDS011;18624;50.042;8.436;2023-03-01T15:52:35;22.50;;;12.98;;
32108;SDS011;18624;50.042;8.436;2023-03-01T15:55:10;26.23;;;12.63;;
32108;SDS011;18624;50.042;8.436;2023-03-01T15:57:41;21.95;;;12.40;;
32108;SDS011;18624;50.042;8.436;2023-03-01T16:00:11;23.73;;;11.55;;
32108;SDS011;18624;50.042;8.436;2023-03-01T16:02:40;26.80;;;13.55;;
32108;SDS011;18624;50.042;8.436;2023-03-01T16:05:21;21.02;;;12.45;;
32108;SDS011;18624;50.042;8.436;2023-03-01T16:07:53;21.40;;;12.02;;
32108;SDS011;18624;50.042;8.436;2023-03-01T16:10:20;21.00;;;12.18;;
32108;SDS011;18624;50.042;8.436;2023-03-01T16:12:47;23.55;;;13.20;;
32108;SDS011;18624;50.042;8.436;2023-03-01T16:15:16;20.75;;;12.45;;
32108;SDS011;18624;50.042;8.436;2023-03-01T16:17:44;24.23;;;13.65;;
32108;SDS011;18624;50.042;8.436;2023-03-01T16:20:20;22.80;;;12.90;;
32108;SDS011;18624;50.042;8.436;2023-03-01T16:22:53;24.23;;;13.23;;
32108;SDS011;18624;50.042;8.436;2023-03-01T16:25:20;23.92;;;13.20;;
32108;SDS011;18624;50.042;8.436;2023-03-01T16:27:48;20.60;;;12.13;;
32108;SDS011;18624;50.042;8.436;2023-03-01T16:30:17;24.17;;;13.40;;
32108;SDS011;18624;50.042;8.436;2023-03-01T16:32:45;22.48;;;12.55;;
32108;SDS011;18624;50.042;8.436;2023-03-01T16:35:14;24.15;;;12.30;;
32108;SDS011;18624;50.042;8.436;2023-03-01T16:37:43;23.70;;;13.65;;
32108;SDS011;18624;50.042;8.436;2023-03-01T16:40:16;22.77;;;13.82;;
32108;SDS011;18624;50.042;8.436;2023-03-01T16:42:47;22.20;;;12.15;;
32108;SDS011;18624;50.042;8.436;2023-03-01T16:45:14;20.75;;;11.73;;
32108;SDS011;18624;50.042;8.436;2023-03-01T16:47:50;22.58;;;12.50;;
32108;SDS011;18624;50.042;8.436;2023-03-01T16:50:17;21.17;;;12.23;;
32108;SDS011;18624;50.042;8.436;2023-03-01T16:52:44;27.85;;;13.75;;
32108;SDS011;18624;50.042;8.436;2023-03-01T16:55:11;25.33;;;14.02;;
32108;SDS011;18624;50.042;8.436;2023-03-01T16:57:37;23.08;;;12.65;;
32108;SDS011;18624;50.042;8.436;2023-03-01T17:00:05;23.50;;;12.65;;
32108;SDS011;18624;50.042;8.436;2023-03-01T17:02:35;25.77;;;13.27;;
32108;SDS011;18624;50.042;8.436;2023-03-01T17:05:02;25.33;;;13.10;;